tititudorancea.com
Station Historical Data
Daily Summary for January 22, 2019 Units:  Metric    English   Both
« Previous Day
Next Day »
Daily Weekly Monthly Yearly Custom
  High: Low: Average:
Temperature: -17.8 °C 13.5 °C 26.2 °C
Dew Point: -17.8 °C 7.4 °C 11.7 °C
Humidity: Humidity % 16 % 50 %
Wind Speed: 0 km/h 0 km/h 12.7 km/h
Wind Gust: 0 km/h - -
Wind:- - SW
Pressure: 0 hPa 1007.3 hPa -
Precipitation: 0 mm    
Historical Graphs
 
 
Ararat weather Find more about Weather in Ararat, AU


 



 


Tabular Data for January 22, 2019
Time Temperature Dew Point Pressure Wind Wind Speed Wind Gust Humidity Rainfall Rate (Hourly)
-17.8 °C -17.8 °C 0 hPa Calm     Humidity % 0 mm
00:04 18.1 °C 14.2 °C 1013.1 hPa North 16.7 km/h 12.6 km/h 78 % 0 mm
00:09 18 °C 14.3 °C 1013.1 hPa SSW 16.7 km/h 9.3 km/h 79 % 0 mm
00:14 18 °C 14.5 °C 1013.1 hPa North 12.9 km/h 11.1 km/h 80 % 0 mm
00:19 18.1 °C 14.6 °C 1012.8 hPa South 25.9 km/h 17.1 km/h 80 % 0 mm
00:24 18 °C 14.3 °C 1012.8 hPa SSW 18.5 km/h 11.9 km/h 79 % 0 mm
00:29 17.9 °C 14.4 °C 1012.8 hPa North 14.8 km/h 14 km/h 80 % 0 mm
00:34 17.9 °C 14.4 °C 1012.8 hPa North 13 km/h 7.7 km/h 80 % 0 mm
00:39 17.8 °C 14.3 °C 1012.8 hPa South 9.3 km/h 10 km/h 80 % 0 mm
00:44 17.8 °C 14.5 °C 1012.8 hPa SSW 14.8 km/h 11.4 km/h 81 % 0 mm
00:49 17.6 °C 14.3 °C 1012.8 hPa South 14.8 km/h 7.4 km/h 81 % 0 mm
00:52 17.6 °C 14.3 °C 1012.4 hPa North 18.5 km/h 8.9 km/h 81 % 0 mm
01:04 17.4 °C 14.3 °C 1012.4 hPa South 13 km/h 10.3 km/h 82 % 0 mm
01:09 17.4 °C 14.3 °C 1012.4 hPa South 14.8 km/h 12.6 km/h 82 % 0 mm
01:14 17.3 °C 14.2 °C 1012.4 hPa South 11.1 km/h 6.8 km/h 82 % 0 mm
01:19 17.3 °C 14.4 °C 1012.4 hPa South 13 km/h 8.5 km/h 83 % 0 mm
01:24 17.2 °C 14.3 °C 1012.4 hPa South 13 km/h 7.7 km/h 83 % 0 mm
01:29 17.1 °C 14.2 °C 1012.4 hPa SSW 9.7 km/h 9 km/h 83 % 0 mm
01:34 16.9 °C 14.2 °C 1012.4 hPa SSW 13 km/h 4.7 km/h 84 % 0 mm
01:39 16.9 °C 14.2 °C 1012.1 hPa SSW 14.8 km/h 9.3 km/h 84 % 0 mm
01:44 16.8 °C 14.1 °C 1012.1 hPa North 13 km/h 6.3 km/h 84 % 0 mm
01:49 16.7 °C 14.2 °C 1012.1 hPa SSW 9.3 km/h 6.9 km/h 85 % 0 mm
01:54 16.7 °C 14.1 °C 1012.1 hPa SSW 13 km/h 10.8 km/h 85 % 0 mm
01:59 16.6 °C 14.3 °C 1012.1 hPa SSW 13 km/h 7.4 km/h 86 % 0 mm
02:04 16.6 °C 14.2 °C 1012.1 hPa SSW 9.3 km/h 6.3 km/h 86 % 0 mm
02:09 16.6 °C 14.2 °C 1011.7 hPa SSW 11.1 km/h 5.5 km/h 86 % 0 mm
02:14 16.5 °C 14.2 °C 1011.7 hPa North 7.4 km/h 2.7 km/h 86 % 0 mm
02:19 16.4 °C 14.1 °C 1011.7 hPa SSW 7.4 km/h 2.7 km/h 86 % 0 mm
02:24 16.4 °C 14.1 °C 1011.7 hPa SSW 5.6 km/h 4 km/h 86 % 0 mm
02:29 16.4 °C 14.1 °C 1011.7 hPa SSW 5.6 km/h 4.2 km/h 86 % 0 mm
02:34 16.4 °C 14.2 °C 1011.4 hPa SSW 11.1 km/h 7.2 km/h 87 % 0 mm
02:39 16.4 °C 14.2 °C 1011.4 hPa SSW 5.6 km/h 3.1 km/h 87 % 0 mm
02:44 16.3 °C 14.2 °C 1011.4 hPa North 5.6 km/h 4.3 km/h 87 % 0 mm
02:49 16.3 °C 14.2 °C 1011.4 hPa North 5.6 km/h 3.9 km/h 87 % 0 mm
02:54 16.3 °C 14.1 °C 1011.1 hPa Calm     87 % 0 mm
02:59 16.2 °C 14.1 °C 1011.1 hPa Calm     87 % 0 mm
03:04 16.2 °C 14.1 °C 1011.1 hPa SSW 5.6 km/h 3.9 km/h 87 % 0 mm
03:09 16.2 °C 14 °C 1011.1 hPa SSW 5.6 km/h 3.4 km/h 87 % 0 mm
03:14 16.2 °C 14 °C 1011.1 hPa SSW 11.1 km/h 7.1 km/h 87 % 0 mm
03:19 16.2 °C 14.1 °C 1011.1 hPa SSW 5.6 km/h 2.9 km/h 87 % 0 mm
03:24 16.2 °C 14 °C 1011.1 hPa North 5.6 km/h 2.3 km/h 87 % 0 mm
03:29 16.2 °C 14 °C 1011.1 hPa SSW 5.6 km/h 3.2 km/h 87 % 0 mm
03:34 16.1 °C 13.9 °C 1011.1 hPa North 6.4 km/h 2.6 km/h 87 % 0 mm
03:39 16 °C 13.8 °C 1011.1 hPa SSW 5.6 km/h 4.3 km/h 87 % 0 mm
03:44 16 °C 13.8 °C 1010.7 hPa North 3.7 km/h 2.3 km/h 87 % 0 mm
03:49 15.9 °C 13.8 °C 1010.7 hPa Calm     87 % 0 mm
03:54 15.9 °C 13.7 °C 1010.7 hPa SSW 1.9 km/h   87 % 0 mm
03:59 15.8 °C 13.8 °C 1010.4 hPa Calm     88 % 0 mm
04:04 15.8 °C 13.6 °C 1010.4 hPa Calm     87 % 0 mm
04:09 15.7 °C 13.5 °C 1010.4 hPa Calm     87 % 0 mm
04:14 15.6 °C 13.6 °C 1010.4 hPa Calm     88 % 0 mm
04:19 15.7 °C 13.7 °C 1010.4 hPa Calm     88 % 0 mm
04:24 15.6 °C 13.6 °C 1010 hPa Calm     88 % 0 mm
04:29 15.4 °C 13.4 °C 1010 hPa Calm     88 % 0 mm
04:34 15.3 °C 13.3 °C 1010 hPa Calm     88 % 0 mm
04:39 15.2 °C 13.2 °C 1010 hPa Calm     88 % 0 mm
04:44 15.1 °C 13.3 °C 1010 hPa Calm     89 % 0 mm
04:49 15 °C 13.2 °C 1010 hPa Calm     89 % 0 mm
04:54 14.8 °C 13.1 °C 1010 hPa Calm     89 % 0 mm
04:59 14.8 °C 13.1 °C 1010 hPa Calm     89 % 0 mm
05:04 14.8 °C 13 °C 1010 hPa Calm     89 % 0 mm
05:09 14.7 °C 12.9 °C 1010 hPa Calm     89 % 0 mm
05:14 14.7 °C 13.1 °C 1010 hPa Calm     90 % 0 mm
05:19 14.5 °C 12.7 °C 1010 hPa Calm     89 % 0 mm
05:24 14.6 °C 12.9 °C 1010 hPa Calm     90 % 0 mm
05:29 14.6 °C 13 °C 1010 hPa SSW 3.7 km/h 0.5 km/h 90 % 0 mm
05:34 14.5 °C 12.9 °C 1010 hPa SSW 1.6 km/h 0.6 km/h 90 % 0 mm
05:39 14.4 °C 12.8 °C 1010 hPa Calm     90 % 0 mm
05:44 14.3 °C 12.7 °C 1010 hPa Calm     90 % 0 mm
05:49 14.3 °C 12.8 °C 1010 hPa Calm     91 % 0 mm
05:54 14.2 °C 12.6 °C 1010 hPa Calm     90 % 0 mm
05:59 14.2 °C 12.7 °C 1010 hPa Calm     91 % 0 mm
06:04 14.1 °C 12.7 °C 1010.4 hPa Calm     91 % 0 mm
06:09 14 °C 12.6 °C 1010.4 hPa Calm     91 % 0 mm
06:14 13.9 °C 12.5 °C 1010.4 hPa Calm     91 % 0 mm
06:19 13.9 °C 12.4 °C 1010.4 hPa Calm     91 % 0 mm
06:24 13.8 °C 12.4 °C 1010.4 hPa Calm     91 % 0 mm
06:29 13.8 °C 12.3 °C 1010.4 hPa Calm     91 % 0 mm
06:34 13.7 °C 12.3 °C 1010.4 hPa Calm     91 % 0 mm
06:39 13.7 °C 12.2 °C 1010.4 hPa Calm     91 % 0 mm
06:44 13.6 °C 12.2 °C 1010.4 hPa Calm     91 % 0 mm
06:49 13.6 °C 12.1 °C 1010.4 hPa Calm     91 % 0 mm
06:54 13.5 °C 12.1 °C 1010.4 hPa Calm     91 % 0 mm
06:59 13.6 °C 12.3 °C 1010.4 hPa Calm     92 % 0 mm
07:04 13.9 °C 12.8 °C 1010.4 hPa Calm     93 % 0 mm
07:09 14.1 °C 13 °C 1010.4 hPa Calm     93 % 0 mm
07:14 14.5 °C 13.4 °C 1010.4 hPa Calm     93 % 0 mm
07:19 14.9 °C 13.6 °C 1010.4 hPa Calm     92 % 0 mm
07:24 15.2 °C 13.9 °C 1010.4 hPa Calm     92 % 0 mm
07:29 15.6 °C 14.3 °C 1010.4 hPa SSW 1.9 km/h 1 km/h 92 % 0 mm
07:34 15.9 °C 14.4 °C 1010.7 hPa Calm     91 % 0 mm
07:39 16.1 °C 14.4 °C 1010.4 hPa Calm     90 % 0 mm
07:44 16.2 °C 14.5 °C 1010.4 hPa Calm     90 % 0 mm
07:49 16.4 °C 14.7 °C 1010.7 hPa Calm     90 % 0 mm
07:54 16.7 °C 14.8 °C 1010.7 hPa Calm     89 % 0 mm
07:59 17 °C 15.2 °C 1010.7 hPa Calm     89 % 0 mm
08:04 17.5 °C 15.5 °C 1010.7 hPa Calm     88 % 0 mm
08:09 18.3 °C 15.9 °C 1010.4 hPa Calm     86 % 0 mm
08:14 18.9 °C 15.7 °C 1010.7 hPa Calm     82 % 0 mm
08:19 19.4 °C 16.1 °C 1010.7 hPa Calm     81 % 0 mm
08:24 20 °C 15.8 °C 1010.7 hPa Calm     77 % 0 mm
08:29 20.4 °C 15.9 °C 1010.7 hPa Calm     75 % 0 mm
08:34 21.1 °C 16.3 °C 1010.7 hPa Calm     74 % 0 mm
08:39 21.7 °C 16 °C 1010.7 hPa Calm     70 % 0 mm
08:44 22.4 °C 15.9 °C 1010.7 hPa Calm     67 % 0 mm
08:49 22.9 °C 15.2 °C 1010.7 hPa SSW 5.6 km/h 2.7 km/h 62 % 0 mm
08:54 23.4 °C 15.2 °C 1010.7 hPa SSW 5.6 km/h 2.7 km/h 60 % 0 mm
08:59 24 °C 15.2 °C 1010.7 hPa SSW 1.6 km/h 0.3 km/h 58 % 0 mm
09:04 24.6 °C 14.9 °C 1010.7 hPa SSW 5.6 km/h 5.3 km/h 55 % 0 mm
09:09 25.2 °C 14.9 °C 1010.7 hPa SSW 5.6 km/h 4.7 km/h 53 % 0 mm
09:14 25.6 °C 14.7 °C 1010.7 hPa SSW 5.6 km/h 3.7 km/h 51 % 0 mm
09:19 26.2 °C 15 °C 1010.7 hPa SSW 5.6 km/h 1.9 km/h 50 % 0 mm
09:24 26.9 °C 14.9 °C 1010.7 hPa SSW 5.6 km/h 4.3 km/h 48 % 0 mm
09:29 27.4 °C 14.7 °C 1010.7 hPa SSW 5.6 km/h 3.2 km/h 46 % 0 mm
09:34 28 °C 14.9 °C 1010.7 hPa SSW 3.7 km/h 2.3 km/h 45 % 0 mm
09:39 28.6 °C 14.8 °C 1010.7 hPa SSW 7.4 km/h 5.6 km/h 43 % 0 mm
09:44 29.2 °C 14.6 °C 1010.7 hPa SSW 5.6 km/h 2.4 km/h 41 % 0 mm
09:49 29.9 °C 14.1 °C 1010.7 hPa SSW 5.6 km/h 3.1 km/h 38 % 0 mm
09:54 30.6 °C 13.3 °C 1010.4 hPa SSW 9.7 km/h 4.8 km/h 35 % 0 mm
09:59 31 °C 13.3 °C 1010.4 hPa SSW 5.6 km/h 3.4 km/h 34 % 0 mm
10:04 31.5 °C 13.3 °C 1010.4 hPa SSW 5.6 km/h 5.3 km/h 33 % 0 mm
10:09 31.8 °C 12.6 °C 1010.4 hPa SSW 5.6 km/h 3.7 km/h 31 % 0 mm
10:14 32 °C 12.3 °C 1010.4 hPa SSW 13 km/h 8 km/h 30 % 0 mm
10:19 32.1 °C 11.8 °C 1010.4 hPa West 18.5 km/h 16.9 km/h 29 % 0 mm
10:24 32.6 °C 11.7 °C 1010.4 hPa WSW 16.7 km/h 14.8 km/h 28 % 0 mm
10:29 32.8 °C 11.9 °C 1010.4 hPa West 18.5 km/h 11.6 km/h 28 % 0 mm
10:34 32.9 °C 12 °C 1010.4 hPa WNW 14.5 km/h 10.8 km/h 28 % 0 mm
10:39 33.1 °C 11 °C 1010.4 hPa WSW 22.2 km/h 13.8 km/h 26 % 0 mm
10:44 33.1 °C 11.6 °C 1010.4 hPa NW 18.5 km/h 10.9 km/h 27 % 0 mm
10:49 33.1 °C 11.6 °C 1010.4 hPa West 13 km/h 10.5 km/h 27 % 0 mm
10:54 33.4 °C 11.3 °C 1010.4 hPa West 17.7 km/h 10.8 km/h 26 % 0 mm
10:59 33.5 °C 11.4 °C 1010.4 hPa West 7.4 km/h 6.1 km/h 26 % 0 mm
11:04 33.6 °C 11.4 °C 1010.4 hPa WNW 18.5 km/h 12.9 km/h 26 % 0 mm
11:09 33.4 °C 11.3 °C 1010.4 hPa North 14.5 km/h 9.2 km/h 26 % 0 mm
11:14 33.3 °C 11.2 °C 1010.4 hPa WNW 14.8 km/h 11.7 km/h 26 % 0 mm
11:19 33.4 °C 11.3 °C 1010 hPa West 13 km/h 8.9 km/h 26 % 0 mm
11:24 33.3 °C 11.2 °C 1010 hPa North 13 km/h 10.5 km/h 26 % 0 mm
11:29 33.4 °C 10.7 °C 1010 hPa West 14.5 km/h 10 km/h 25 % 0 mm
11:34 33.5 °C 10.8 °C 1010 hPa West 11.1 km/h 7.6 km/h 25 % 0 mm
11:39 33.7 °C 10.9 °C 1010 hPa WNW 16.1 km/h 11.1 km/h 25 % 0 mm
11:44 34.2 °C 11.3 °C 1010 hPa North 16.7 km/h 10.1 km/h 25 % 0 mm
11:49 34.3 °C 10.2 °C 1010 hPa WSW 25.7 km/h 15.1 km/h 23 % 0 mm
11:54 34.1 °C 10.7 °C 1009.7 hPa West 20.4 km/h 12.7 km/h 24 % 0 mm
11:59 34.4 °C 10.3 °C 1009.7 hPa West 5.6 km/h 6.3 km/h 23 % 0 mm
12:04 34.6 °C 10.4 °C 1009.7 hPa WNW 18.5 km/h 9.8 km/h 23 % 0 mm
12:09 34.8 °C 10.6 °C 1009.7 hPa WSW 14.8 km/h 9.7 km/h 23 % 0 mm
12:14 34.6 °C 9.7 °C 1009.7 hPa WNW 18.5 km/h 8.2 km/h 22 % 0 mm
12:19 34.6 °C 9.8 °C 1009.7 hPa WSW 22.2 km/h 12.1 km/h 22 % 0 mm
12:24 34.9 °C 10 °C 1009.7 hPa West 20.4 km/h 14.2 km/h 22 % 0 mm
12:29 34.9 °C 10 °C 1009.7 hPa WNW 22.2 km/h 9.7 km/h 22 % 0 mm
12:34 35.1 °C 10.2 °C 1009.7 hPa North 17.7 km/h 9 km/h 22 % 0 mm
12:39 35.2 °C 9.6 °C 1009.7 hPa SW 14.8 km/h 10.3 km/h 21 % 0 mm
12:44 35.1 °C 10.2 °C 1009.7 hPa North 20.4 km/h 12.7 km/h 22 % 0 mm
12:49 35.1 °C 10.2 °C 1009.4 hPa SW 14.8 km/h 4 km/h 22 % 0 mm
12:54 34.9 °C 10.7 °C 1009.4 hPa SW 11.1 km/h 7.1 km/h 23 % 0 mm
12:59 35.3 °C 10.3 °C 1009.4 hPa North 25.9 km/h 19.2 km/h 22 % 0 mm
13:04 35.6 °C 9.9 °C 1009 hPa WNW 13 km/h 9.3 km/h 21 % 0 mm
13:09 35.8 °C 9.4 °C 1009 hPa SSW 22.2 km/h 15.8 km/h 20 % 0 mm
13:14 35.8 °C 9.3 °C 1009 hPa WSW 14.8 km/h 10.5 km/h 20 % 0 mm
13:19 35.7 °C 9.3 °C 1009 hPa WSW 27.8 km/h 13 km/h 20 % 0 mm
13:24 35.7 °C 9.2 °C 1009 hPa SW 24.1 km/h 14.6 km/h 20 % 0 mm
13:29 35.6 °C 9.2 °C 1009 hPa SW 18.5 km/h 17.4 km/h 20 % 0 mm
13:34 35.8 °C 8.6 °C 1009 hPa West 20.4 km/h 10.5 km/h 19 % 0 mm
13:39 36.1 °C 8.8 °C 1009 hPa North 22.2 km/h 19.2 km/h 19 % 0 mm
13:44 35.9 °C 9.4 °C 1009 hPa West 9.3 km/h 8.5 km/h 20 % 0 mm
13:49 36.1 °C 8.1 °C 1009 hPa WNW 20.4 km/h 11.6 km/h 18 % 0 mm
13:54 36.2 °C 8.9 °C 1008.7 hPa NW 5.6 km/h 4.8 km/h 19 % 0 mm
13:59 36.3 °C 9 °C 1008.7 hPa North 14.8 km/h 8.5 km/h 19 % 0 mm
14:04 36.4 °C 9.1 °C 1008.7 hPa West 7.4 km/h 2.3 km/h 19 % 0 mm
14:09 36.6 °C 9.2 °C 1008.7 hPa West 18.5 km/h 11.6 km/h 19 % 0 mm
14:14 36.6 °C 9.2 °C 1008.7 hPa North 11.1 km/h 7.6 km/h 19 % 0 mm
14:19 36.3 °C 9 °C 1008.7 hPa North 16.7 km/h 10.5 km/h 19 % 0 mm
14:24 36.2 °C 8.9 °C 1008.7 hPa West 11.1 km/h 8.7 km/h 19 % 0 mm
14:29 36.2 °C 9.7 °C 1008.4 hPa SW 14.5 km/h 6.6 km/h 20 % 0 mm
14:34 36.6 °C 9.2 °C 1008.4 hPa SW 29.6 km/h 17.9 km/h 19 % 0 mm
14:39 36.6 °C 9.2 °C 1008.4 hPa SSW 13 km/h 5.6 km/h 19 % 0 mm
14:44 36.6 °C 8.4 °C 1008.4 hPa West 11.3 km/h 7.7 km/h 18 % 0 mm
14:49 36.8 °C 8.6 °C 1008.4 hPa North 16.1 km/h 10.3 km/h 18 % 0 mm
14:54 36.9 °C 8.7 °C 1008.4 hPa WNW 11.3 km/h 10.8 km/h 18 % 0 mm
14:59 36.9 °C 8.7 °C 1008.4 hPa West 17.7 km/h 10.6 km/h 18 % 0 mm
15:04 36.9 °C 8.7 °C 1008 hPa West 13 km/h 6.1 km/h 18 % 0 mm
15:09 37.2 °C 8.9 °C 1008 hPa West 7.4 km/h 5.6 km/h 18 % 0 mm
15:14 37.3 °C 9 °C 1008 hPa West 7.4 km/h 6.3 km/h 18 % 0 mm
15:19 37.5 °C 9.2 °C 1008 hPa West 22.2 km/h 10.8 km/h 18 % 0 mm
15:24 37.4 °C 8.2 °C 1008 hPa SW 14.8 km/h 7.2 km/h 17 % 0 mm
15:29 37.4 °C 9.1 °C 1008 hPa West 17.7 km/h 13.2 km/h 18 % 0 mm
15:34 37.1 °C 8.8 °C 1008 hPa West 16.7 km/h 13.7 km/h 18 % 0 mm
15:39 37.4 °C 8.2 °C 1008 hPa WSW 18.5 km/h 13.2 km/h 17 % 0 mm
15:44 37.4 °C 9.1 °C 1007.7 hPa WSW 11.3 km/h 7.6 km/h 18 % 0 mm
15:49 37.5 °C 8.3 °C 1007.7 hPa SW 8 km/h 7.7 km/h 17 % 0 mm
15:54 37.8 °C 9.4 °C 1008 hPa SSW 18.5 km/h 14.3 km/h 18 % 0 mm
15:59 37.6 °C 8.4 °C 1007.7 hPa West 18.5 km/h 14.8 km/h 17 % 0 mm
16:04 37.4 °C 9.1 °C 1007.7 hPa WSW 14.8 km/h 11.7 km/h 18 % 0 mm
16:09 37.7 °C 7.6 °C 1007.7 hPa WSW 25.9 km/h 17.1 km/h 16 % 0 mm
16:14 37.7 °C 8.4 °C 1007.7 hPa WSW 16.7 km/h 11.6 km/h 17 % 0 mm
16:19 37.7 °C 8.5 °C 1007.7 hPa SSW 9.7 km/h 5.8 km/h 17 % 0 mm
16:24 37.6 °C 7.4 °C 1007.7 hPa SSW 6.4 km/h 1.8 km/h 16 % 0 mm
16:29 37.4 °C 8.3 °C 1007.7 hPa WSW 27.8 km/h 18.3 km/h 17 % 0 mm
16:34 37.3 °C 8.2 °C 1007.3 hPa SW 11.1 km/h 8.7 km/h 17 % 0 mm
16:39 37.5 °C 8.3 °C 1007.3 hPa WSW 18.5 km/h 11.1 km/h 17 % 0 mm
16:44 37.6 °C 8.4 °C 1007.3 hPa North 18.5 km/h 11.1 km/h 17 % 0 mm
16:49 37.8 °C 7.7 °C 1007.3 hPa West 13 km/h 3.7 km/h 16 % 0 mm
16:54 37.9 °C 8.7 °C 1007.3 hPa West 11.1 km/h 7.7 km/h 17 % 0 mm
16:59 37.8 °C 8.6 °C 1007.3 hPa WSW 16.7 km/h 12.9 km/h 17 % 0 mm
17:04 37.8 °C 8.6 °C 1007.3 hPa WSW 27.8 km/h 19 km/h 17 % 0 mm
17:09 37.5 °C 8.3 °C 1007.3 hPa West 24.1 km/h 12.2 km/h 17 % 0 mm
17:14 37.3 °C 8.1 °C 1007.3 hPa South 18.5 km/h 15.1 km/h 17 % 0 mm
17:19 36.9 °C 8.7 °C 1007.3 hPa SSW 9.7 km/h 9.7 km/h 18 % 0 mm
17:24 37.1 °C 8 °C 1007.3 hPa South 16.7 km/h 13 km/h 17 % 0 mm
17:29 37.1 °C 7.9 °C 1007.3 hPa SW 24.1 km/h 18.5 km/h 17 % 0 mm
17:34 36.9 °C 7.9 °C 1007.3 hPa SSW 29.6 km/h 10.9 km/h 17 % 0 mm
17:39 37.1 °C 7.9 °C 1007.3 hPa SSW 31.5 km/h 16.6 km/h 17 % 0 mm
17:44 36.8 °C 7.7 °C 1007.3 hPa SSW 22.2 km/h 19 km/h 17 % 0 mm
17:49 36.7 °C 7.7 °C 1007.3 hPa SW 16.7 km/h 12.1 km/h 17 % 0 mm
17:54 36.7 °C 7.7 °C 1007.3 hPa SSW 24.1 km/h 18 km/h 17 % 0 mm
17:59 36.5 °C 7.5 °C 1007.3 hPa SW 31.5 km/h 19.2 km/h 17 % 0 mm
18:04 36.4 °C 7.4 °C 1007.3 hPa SW 35.2 km/h 21.4 km/h 17 % 0 mm
18:09 36.2 °C 8.9 °C 1007.3 hPa South 37 km/h 19.3 km/h 19 % 0 mm
18:14 35.6 °C 9.9 °C 1007.3 hPa South 27.8 km/h 21.7 km/h 21 % 0 mm
18:19 35.2 °C 10.9 °C 1007.7 hPa SW 38.6 km/h 29.5 km/h 23 % 0 mm
18:24 34.6 °C 11.1 °C 1007.7 hPa South 44.4 km/h 22.5 km/h 24 % 0 mm
18:29 34.2 °C 10.8 °C 1007.7 hPa SSW 31.5 km/h 22.2 km/h 24 % 0 mm
18:34 34.2 °C 11.4 °C 1008 hPa SSE 31.5 km/h 20 km/h 25 % 0 mm
18:39 33.9 °C 11.1 °C 1008 hPa SSE 18.5 km/h 13.8 km/h 25 % 0 mm
18:44 33.5 °C 10.8 °C 1008 hPa South 35.2 km/h 16.6 km/h 25 % 0 mm
18:49 33.4 °C 11.3 °C 1008 hPa South 35.2 km/h 20.6 km/h 26 % 0 mm
18:54 33.1 °C 11.1 °C 1008.4 hPa SSW 37 km/h 22.7 km/h 26 % 0 mm
18:59 32.7 °C 11.2 °C 1008 hPa South 29.6 km/h 19.6 km/h 27 % 0 mm
19:04 32.6 °C 11.2 °C 1008.4 hPa SSW 27.8 km/h 12.1 km/h 27 % 0 mm
19:09 32.5 °C 11.1 °C 1008.7 hPa SSW 20.4 km/h 21.2 km/h 27 % 0 mm
19:14 32.3 °C 10.9 °C 1008.7 hPa SSW 35.2 km/h 20.1 km/h 27 % 0 mm
19:19 32 °C 10.7 °C 1008.7 hPa SSW 29.6 km/h 18.3 km/h 27 % 0 mm
19:24 31.8 °C 11 °C 1008.7 hPa SSE 29 km/h 13.7 km/h 28 % 0 mm
19:29 31.5 °C 10.8 °C 1009 hPa SSW 35.2 km/h 16.9 km/h 28 % 0 mm
19:34 31.4 °C 11.3 °C 1009 hPa South 19.3 km/h 13.2 km/h 29 % 0 mm
19:39 31.3 °C 11.1 °C 1009 hPa South 20.4 km/h 11.4 km/h 29 % 0 mm
19:44 30.9 °C 10.8 °C 1009.4 hPa South 29.6 km/h 17.7 km/h 29 % 0 mm
19:49 30.4 °C 10.9 °C 1009.4 hPa South 20.4 km/h 14.2 km/h 30 % 0 mm
19:54 29.9 °C 10.5 °C 1009.4 hPa South 25.9 km/h 17.9 km/h 30 % 0 mm
19:59 29.7 °C 10.3 °C 1009.4 hPa South 20.4 km/h 14.2 km/h 30 % 0 mm
20:04 29.5 °C 10.6 °C 1009.7 hPa South 20.4 km/h 16.4 km/h 31 % 0 mm
20:09 29.3 °C 10.9 °C 1009.7 hPa SSW 20.4 km/h 13.7 km/h 32 % 0 mm
20:14 29.1 °C 10.7 °C 1009.7 hPa SSW 22.5 km/h 17.2 km/h 32 % 0 mm
20:19 28.9 °C 10.6 °C 1009.7 hPa SSW 24.1 km/h 15.8 km/h 32 % 0 mm
20:24 28.7 °C 10.8 °C 1009.7 hPa SSW 20.4 km/h 13 km/h 33 % 0 mm
20:29 28.5 °C 10.7 °C 1010 hPa South 18.5 km/h 12.2 km/h 33 % 0 mm
20:34 28.3 °C 10.9 °C 1010 hPa SSW 18.5 km/h 8.9 km/h 34 % 0 mm
20:39 28.1 °C 11.2 °C 1010 hPa South 19.3 km/h 16.3 km/h 35 % 0 mm
20:44 27.7 °C 11.3 °C 1010.4 hPa South 18.5 km/h 13.5 km/h 36 % 0 mm
20:49 27.4 °C 11 °C 1010.4 hPa SSW 18.5 km/h 16.1 km/h 36 % 0 mm
20:54 27.1 °C 11.2 °C 1010.4 hPa South 14.8 km/h 10.9 km/h 37 % 0 mm
20:59 26.9 °C 10.9 °C 1010.4 hPa South 18.5 km/h 10 km/h 37 % 0 mm
21:04 26.7 °C 11.2 °C 1010.4 hPa South 16.7 km/h 8 km/h 38 % 0 mm
21:09 26.4 °C 11 °C 1010.4 hPa South 16.7 km/h 11.4 km/h 38 % 0 mm
21:14 26.3 °C 10.8 °C 1010.4 hPa South 16.7 km/h 12.6 km/h 38 % 0 mm
21:19 26.1 °C 10.6 °C 1010.4 hPa South 14.8 km/h 8.9 km/h 38 % 0 mm
21:24 25.9 °C 10.5 °C 1010.7 hPa South 16.1 km/h 9.3 km/h 38 % 0 mm
21:29 25.7 °C 10.7 °C 1010.7 hPa South 16.7 km/h 9.5 km/h 39 % 0 mm
21:34 25.5 °C 10.5 °C 1010.7 hPa SSW 18.5 km/h 13 km/h 39 % 0 mm
21:39 25.3 °C 10.8 °C 1010.7 hPa SSW 9.3 km/h 8.4 km/h 40 % 0 mm
21:44 25.1 °C 10.9 °C 1010.7 hPa South 16.7 km/h 6.6 km/h 41 % 0 mm
21:49 24.8 °C 11.1 °C 1011.1 hPa South 12.9 km/h 9.8 km/h 42 % 0 mm
21:54 24.6 °C 11.2 °C 1011.1 hPa SSW 27.8 km/h 8.2 km/h 43 % 0 mm
21:59 24.3 °C 11.2 °C 1011.1 hPa SSW 16.7 km/h 9.3 km/h 44 % 0 mm
22:04 24 °C 11.3 °C 1011.1 hPa South 14.8 km/h 11.6 km/h 45 % 0 mm
22:09 23.8 °C 11.4 °C 1011.1 hPa SSW 16.7 km/h 15.3 km/h 46 % 0 mm
22:13 23.6 °C 11.6 °C 1011.1 hPa SSW 20.4 km/h 11.7 km/h 47 % 0 mm
22:24 23.1 °C 11.8 °C 1011.1 hPa SSW 18.5 km/h 10.3 km/h 49 % 0 mm
22:26 23.1 °C 11.8 °C 1011.1 hPa SSW 16.7 km/h 7.6 km/h 49 % 0 mm
22:34 23.1 °C 11.8 °C 1011.1 hPa North 16.7 km/h 9.3 km/h 49 % 0 mm
22:35 23.1 °C 11.8 °C 1011.1 hPa North 16.7 km/h 9.3 km/h 49 % 0 mm
22:48 23.1 °C 11.8 °C 1011.1 hPa North 16.7 km/h 9.3 km/h 49 % 0 mm
23:07 23.1 °C 11.8 °C 1011.1 hPa North 16.7 km/h 9.3 km/h 49 % 0 mm
23:41 23.1 °C 11.8 °C 1011.1 hPa North 16.7 km/h 9.3 km/h 49 % 0 mm
Ararat Weather
Compliments of Weather Underground - 2.25 mb
Click here to send mail.


ABOUT

Live weather data from Ararat, Victoria, Australia, 3377
Data uploaded from Cumulus every 5 minutes to Weather Underground.
This site then downloads the raw data for formatting and display.
Metric and imperial data can be displayed. Graphs and historical data available.
Includes Sun and Moon times and rain image live from BOM.

Check out Ararat Weather on Facebook, Twitter and Google +

Help support ongoing costs by checking out the ads





Follow @AraratWeather